createdAt,value
2019-06-26T00:05:36.189Z,21.1
2019-06-26T00:11:13.999Z,20.9
2019-06-26T00:16:42.595Z,20.9
2019-06-26T00:22:18.403Z,21.3
2019-06-26T00:27:46.342Z,21.3
2019-06-26T00:33:25.786Z,21.3
2019-06-26T00:39:00.166Z,21
2019-06-26T00:44:28.910Z,21
2019-06-26T00:50:02.138Z,21.1
2019-06-26T00:55:43.459Z,21.2
2019-06-26T01:01:20.874Z,21.2
2019-06-26T01:06:47.315Z,20.9
2019-06-26T01:12:21.190Z,21
2019-06-26T01:17:56.038Z,20.9
2019-06-26T01:23:30.450Z,20.9
2019-06-26T01:28:58.978Z,20.9
2019-06-26T01:34:36.202Z,21
2019-06-26T01:40:11.348Z,20.9
2019-06-26T01:45:43.416Z,21
2019-06-26T01:51:26.237Z,20.7
2019-06-26T01:56:53.475Z,20.7
2019-06-26T02:02:24.130Z,20.6
2019-06-26T02:07:59.861Z,21
2019-06-26T02:13:37.621Z,20.5
2019-06-26T02:19:08.770Z,20.1
2019-06-26T02:24:48.082Z,19.9
2019-06-26T02:30:15.301Z,19.6
2019-06-26T02:35:52.227Z,20.3
2019-06-26T02:41:28.686Z,20.6
2019-06-26T02:47:17.482Z,20.5
2019-06-26T02:52:42.331Z,20.5
2019-06-26T02:58:05.330Z,20.3
2019-06-26T03:03:43.274Z,20
2019-06-26T03:09:18.051Z,19.9
2019-06-26T03:15:07.666Z,19.8
2019-06-26T03:20:30.045Z,19.8
2019-06-26T03:26:02.691Z,19.8
2019-06-26T03:31:39.166Z,19.8
2019-06-26T03:37:06.732Z,19.8
2019-06-26T03:42:34.556Z,19.9
2019-06-26T03:48:10.458Z,19.9
2019-06-26T03:53:42.622Z,20
2019-06-26T03:59:18.870Z,20.3
2019-06-26T04:04:53.247Z,20.2
2019-06-26T04:10:24.687Z,20.4
2019-06-26T04:16:11.579Z,20.7
2019-06-26T04:21:43.699Z,21.1
2019-06-26T04:27:12.019Z,21.6
2019-06-26T04:32:52.020Z,21.6
2019-06-26T04:38:17.196Z,21.3
2019-06-26T04:43:56.636Z,21.6
2019-06-26T04:49:27.792Z,21.6
2019-06-26T05:00:36.492Z,21.6
2019-06-26T05:06:07.200Z,21.3
2019-06-26T05:11:42.704Z,21.6
2019-06-26T05:17:25.911Z,21.4
2019-06-26T05:22:50.402Z,21.4
2019-06-26T05:28:34.474Z,21.6
2019-06-26T05:34:12.690Z,22
2019-06-26T05:39:40.635Z,22.3
2019-06-26T05:45:22.074Z,22.2
2019-06-26T05:50:55.902Z,22.2
2019-06-26T05:56:29.482Z,22.5
2019-06-26T06:01:56.453Z,22.9
2019-06-26T06:07:34.085Z,23
2019-06-26T06:13:08.260Z,23.3
2019-06-26T06:18:48.169Z,23.6
2019-06-26T06:24:23.105Z,23.9
2019-06-26T06:29:59.945Z,24
2019-06-26T06:35:38.065Z,24.9
2019-06-26T06:41:00.203Z,24.4
2019-06-26T06:46:44.801Z,24.8
2019-06-26T06:52:16.806Z,25
2019-06-26T06:57:55.680Z,25.4
2019-06-26T07:03:28.065Z,25.5
2019-06-26T07:09:06.907Z,27.1
2019-06-26T07:14:46.610Z,26.5
2019-06-26T07:20:21.905Z,27
2019-06-26T07:25:53.638Z,26.5
2019-06-26T07:31:38.494Z,27.5
2019-06-26T07:37:02.642Z,26.1
2019-06-26T07:42:39.578Z,26.6
2019-06-26T07:48:25.712Z,27.4
2019-06-26T07:53:59.178Z,26.5
2019-06-26T07:59:35.482Z,28.2
2019-06-26T08:05:14.718Z,26.8
2019-06-26T08:10:53.042Z,27.3
2019-06-26T08:16:18.748Z,28.3
2019-06-26T08:21:58.718Z,28.5
2019-06-26T08:27:36.990Z,29.1
2019-06-26T08:33:12.025Z,29.4
2019-06-26T08:38:47.203Z,29.8
2019-06-26T08:44:27.827Z,29.5
2019-06-26T08:50:02.066Z,29.5
2019-06-26T08:55:46.780Z,29.8
2019-06-26T09:01:25.959Z,30.1
2019-06-26T09:07:02.689Z,29.7
2019-06-26T09:12:39.991Z,29.7
2019-06-26T09:23:54.499Z,30.3
2019-06-26T09:29:32.081Z,30.4
2019-06-26T09:35:10.809Z,30.1
2019-06-26T09:40:43.899Z,30.4
2019-06-26T09:46:28.524Z,30.7
2019-06-26T09:52:03.591Z,31.1
2019-06-26T09:57:45.698Z,31.6
2019-06-26T10:03:12.948Z,31.4
2019-06-26T10:14:46.915Z,30.8
2019-06-26T10:20:19.436Z,30.9
2019-06-26T10:25:50.987Z,30.4
2019-06-26T10:31:28.232Z,31.4
2019-06-26T10:37:16.613Z,31.2
2019-06-26T10:42:52.634Z,31.1
2019-06-26T10:48:22.506Z,31.9
2019-06-26T10:54:02.842Z,31.4
2019-06-26T10:59:45.019Z,32.2
2019-06-26T11:05:14.241Z,31.9
2019-06-26T11:10:57.602Z,32.1
2019-06-26T11:16:35.467Z,32.8
2019-06-26T11:22:11.857Z,33
2019-06-26T11:27:50.012Z,32.7
2019-06-26T11:33:29.373Z,32.8
2019-06-26T11:39:10.255Z,32.9
2019-06-26T11:44:51.195Z,33.1
2019-06-26T11:50:25.740Z,33.1
2019-06-26T11:56:04.540Z,32.7
2019-06-26T12:01:42.918Z,32.7
2019-06-26T12:07:21.199Z,33.9
2019-06-26T12:18:41.327Z,32.6
2019-06-26T12:24:16.378Z,34.5
2019-06-26T12:29:51.425Z,34.5
2019-06-26T12:35:23.962Z,33.5
2019-06-26T12:41:10.127Z,33.7
2019-06-26T12:46:44.272Z,34.3
2019-06-26T12:52:31.313Z,35.3
2019-06-26T12:58:11.562Z,35.5
2019-06-26T13:03:49.081Z,35.1
2019-06-26T13:09:20.061Z,35.2
2019-06-26T13:14:59.810Z,34.9
2019-06-26T13:20:33.184Z,35.9
2019-06-26T13:26:20.872Z,34.6
2019-06-26T13:32:03.189Z,34.8
2019-06-26T13:37:29.745Z,35.9
2019-06-26T13:43:10.589Z,35.4
2019-06-26T13:48:57.234Z,34.9
2019-06-26T13:54:36.001Z,34.4
2019-06-26T14:00:09.244Z,34.9
2019-06-26T14:05:47.928Z,35.3
2019-06-26T14:11:31.959Z,34.6
2019-06-26T14:17:01.543Z,35.4
2019-06-26T14:22:38.717Z,35.4
2019-06-26T14:28:26.540Z,35.2
2019-06-26T14:34:09.262Z,36.2
2019-06-26T14:39:42.952Z,36.7
2019-06-26T14:45:19.606Z,36.3
2019-06-26T14:51:03.350Z,36.3
2019-06-26T14:56:42.350Z,36.3
2019-06-26T15:02:16.546Z,36.2
2019-06-26T15:08:02.215Z,36.3
2019-06-26T15:13:32.383Z,35.1
2019-06-26T15:19:18.702Z,36
2019-06-26T15:24:56.945Z,36.4
2019-06-26T15:30:36.609Z,36.2
2019-06-26T15:36:14.615Z,35.4
2019-06-26T15:41:54.220Z,36
2019-06-26T15:47:36.853Z,35.7
2019-06-26T15:53:11.514Z,35.4
2019-06-26T15:58:53.021Z,35.4
2019-06-26T16:04:35.272Z,35.4
2019-06-26T16:15:49.049Z,35.8
2019-06-26T16:21:24.667Z,35.4
2019-06-26T16:27:07.664Z,35.6
2019-06-26T16:32:45.697Z,35.4
2019-06-26T16:38:20.435Z,34.9
2019-06-26T16:43:58.403Z,35.1
2019-06-26T16:49:35.381Z,34.2
2019-06-26T16:55:25.994Z,34
2019-06-26T17:00:56.262Z,33.9
2019-06-26T17:06:35.082Z,32.9
2019-06-26T17:12:15.278Z,33
2019-06-26T17:17:49.124Z,33.1
2019-06-26T17:23:31.826Z,32.5
2019-06-26T17:29:15.120Z,32.2
2019-06-26T17:34:52.648Z,31.6
2019-06-26T17:40:18.962Z,31.1
2019-06-26T17:45:55.696Z,30.9
2019-06-26T17:51:33.709Z,31.2
2019-06-26T17:57:10.430Z,31.2
2019-06-26T18:02:50.233Z,30.7
2019-06-26T18:08:35.054Z,30.2
2019-06-26T18:14:00.965Z,30.1
2019-06-26T18:19:36.072Z,29.9
2019-06-26T18:25:16.370Z,29.9
2019-06-26T18:30:49.823Z,28.8
2019-06-26T18:36:33.574Z,28.6
2019-06-26T18:42:13.656Z,28.3
2019-06-26T18:47:37.660Z,28.4
2019-06-26T18:53:17.831Z,27.7
2019-06-26T18:58:51.471Z,27.7
2019-06-26T19:04:35.415Z,27.6
2019-06-26T19:10:07.272Z,27.1
2019-06-26T19:15:46.109Z,27
2019-06-26T19:21:12.358Z,27.3
2019-06-26T19:26:57.689Z,26.9
2019-06-26T19:32:33.341Z,26.7
2019-06-26T19:38:02.580Z,26.9
2019-06-26T19:43:36.783Z,26.3
2019-06-26T19:49:11.383Z,26
2019-06-26T19:54:51.169Z,25.5
2019-06-26T20:00:22.214Z,26.1
2019-06-26T20:05:52.309Z,25.8
2019-06-26T20:11:31.891Z,25.8
2019-06-26T20:17:08.086Z,26.4
2019-06-26T20:22:51.391Z,26.4
2019-06-26T20:28:15.071Z,26.5
2019-06-26T20:33:53.254Z,26.3
2019-06-26T20:39:35.071Z,25.9
2019-06-26T20:50:42.053Z,25.9
2019-06-26T20:56:17.183Z,26
2019-06-26T21:01:51.814Z,25.8
2019-06-26T21:07:27.595Z,25.7
2019-06-26T21:13:06.868Z,25.7
2019-06-26T21:18:42.244Z,25.4
2019-06-26T21:24:21.565Z,25.7
2019-06-26T21:29:52.000Z,25.9
2019-06-26T21:35:23.117Z,25.3
2019-06-26T21:41:11.484Z,25.1
2019-06-26T21:46:46.121Z,25
2019-06-26T21:52:17.708Z,24.3
2019-06-26T21:57:48.176Z,24.2
2019-06-26T22:03:23.956Z,23.8
2019-06-26T22:08:58.636Z,22.9
2019-06-26T22:14:34.833Z,22.8
2019-06-26T22:25:50.591Z,22.5
2019-06-26T22:31:11.701Z,22.4
2019-06-26T22:36:52.510Z,21.9
2019-06-26T22:42:20.310Z,21.9
2019-06-26T22:48:05.567Z,21.9
2019-06-26T22:53:29.146Z,22.3
2019-06-26T22:59:08.584Z,22.2
2019-06-26T23:04:48.585Z,22.2
2019-06-26T23:10:10.624Z,23.9
2019-06-26T23:15:56.681Z,23.3
2019-06-26T23:21:19.435Z,23
2019-06-26T23:26:58.323Z,22.9
2019-06-26T23:32:40.196Z,22.8
2019-06-26T23:38:11.479Z,22.5
2019-06-26T23:43:49.040Z,22.2
2019-06-26T23:49:21.910Z,22.1
2019-06-26T23:54:50.304Z,22.1
